RJCO(METAR)
05/30 18:00
METAR RJCO 300900Z 35008KT 9999 FEW030 21/10 Q1015 RMK 1CU030 A2999=
戻る
トップページへ戻る
IMOC Co,.Ltd.